DONNELLS (DON)

Elevation: 4835' · STANISLAUS R basin · Operator: US Bureau of Reclamation

Provisional data, subject to change.
Query executed Friday at 11:17:01

Select a sensor type for a plot of data.
Note: Reservoir Flows are daily averages.

Earlier

Date STORAGE    RES CHG    OUTFLOW   
 AF   AF   CFS  
11/10/2016 39401 304 72
11/11/2016 39681 280 72
11/12/2016 39940 259 72
11/13/2016 40177 237 72
11/14/2016 40375 198 71
11/15/2016 40552 177 71
11/16/2016 40733 181 71
11/17/2016 40787 54 152
11/18/2016 39230 -1557 712
11/19/2016 38391 -839 703
11/20/2016 37300 -1091 689
11/21/2016 36152 -1148 697
11/22/2016 34843 -1309 762
11/23/2016 33560 -1283 769
11/24/2016 32221 -1339 772
11/25/2016 30887 -1334 774
11/26/2016 29559 -1328 776
11/27/2016 28257 -1302 779
11/28/2016 28019 -238 219
11/29/2016 28215 196 48
11/30/2016 28410 195 48
12/01/2016 28600 190 48
12/02/2016 28770 170 48
12/03/2016 28960 190 48
12/04/2016 29157 197 47
12/05/2016 29358 201 47
12/06/2016 29549 191 47
12/07/2016 29711 162 48
12/08/2016 30072 361 48
12/09/2016 -- -- --

Later | Latest

Warning! This data is preliminary and subject to revision.

Show DON Map | Plot DON Data | 1 Month DON Data | Real-Time DON Data | DON Info